Time;durP1;ratioP1;P1;durP2;ratioP2;P2;SDS_P1;SDS_P2;PMS_P1;PMS_P2;Temp;Humidity;BMP_temperature;BMP_pressure;BME280_temperature;BME280_humidity;BME280_pressure;Samples;Min_cycle;Max_cycle;Signal;HPM_P1;HPM_P2
2023/08/10 00:01:27;;;;;;;4.95;2.50;;;;;;;13.04;75.57;98613.34;4999127;28;20420;-79
2023/08/10 00:03:52;;;;;;;3.90;2.20;;;;;;;13.14;75.63;98627.03;4982175;28;20042;-78
2023/08/10 00:06:17;;;;;;;2.65;2.40;;;;;;;12.80;75.61;98568.66;4998889;28;20547;-77
2023/08/10 00:08:43;;;;;;;5.82;2.80;;;;;;;12.86;75.73;98578.50;4982193;28;20101;-78
2023/08/10 00:11:08;;;;;;;5.25;2.70;;;;;;;12.95;75.05;98609.44;4982581;28;20045;-79
2023/08/10 00:13:33;;;;;;;3.50;2.90;;;;;;;12.79;74.99;98599.50;4982372;28;20088;-78
2023/08/10 00:15:59;;;;;;;4.75;2.88;;;;;;;12.75;75.28;98592.91;4966201;28;20679;-78
2023/08/10 00:18:24;;;;;;;3.80;3.00;;;;;;;12.92;75.92;98620.75;4982590;28;20049;-79
2023/08/10 00:20:50;;;;;;;4.43;3.40;;;;;;;12.80;75.67;98607.34;4998387;28;20048;-78
2023/08/10 00:23:15;;;;;;;5.57;3.33;;;;;;;12.79;76.33;98610.28;4982346;28;20120;-78
2023/08/10 00:25:41;;;;;;;6.47;4.15;;;;;;;12.84;75.74;98626.56;4998598;28;20045;-77
2023/08/10 00:28:06;;;;;;;7.05;4.30;;;;;;;12.65;76.67;98630.63;4998339;28;20021;-77
2023/08/10 00:30:31;;;;;;;4.90;3.85;;;;;;;12.62;76.63;98612.19;4982106;28;20070;-77
2023/08/10 00:32:57;;;;;;;4.10;3.17;;;;;;;12.55;76.68;98603.44;4981906;28;20037;-78
2023/08/10 00:35:23;;;;;;;3.78;3.00;;;;;;;12.44;76.85;98597.88;4982385;28;20034;-78
2023/08/10 00:37:49;;;;;;;5.38;3.28;;;;;;;12.19;76.56;98573.16;4982614;28;20496;-78
2023/08/10 00:40:15;;;;;;;4.13;2.50;;;;;;;12.55;76.76;98630.44;4998302;28;20044;-78
2023/08/10 00:42:41;;;;;;;4.63;3.08;;;;;;;12.42;76.94;98624.31;4981650;28;20037;-77
2023/08/10 00:45:09;;;;;;;4.28;2.88;;;;;;;12.32;76.87;98602.53;4981593;28;20444;-80
2023/08/10 00:47:35;;;;;;;4.68;3.30;;;;;;;12.40;76.57;98612.94;4982233;28;20036;-79
2023/08/10 00:50:01;;;;;;;6.75;3.10;;;;;;;12.44;76.04;98624.06;4982140;28;20033;-79
2023/08/10 00:52:27;;;;;;;4.03;3.05;;;;;;;12.21;76.04;98591.81;4981661;28;20068;-78
2023/08/10 00:54:52;;;;;;;3.17;2.65;;;;;;;12.32;76.37;98605.22;4981685;28;20026;-78
2023/08/10 00:57:19;;;;;;;4.63;2.58;;;;;;;12.36;76.12;98609.09;4981969;28;20083;-78
2023/08/10 00:59:45;;;;;;;5.80;2.65;;;;;;;12.56;75.91;98642.88;4982055;28;20525;-78
2023/08/10 01:02:10;;;;;;;5.32;2.80;;;;;;;12.52;76.38;98644.44;4965244;28;20029;-78
2023/08/10 01:04:36;;;;;;;4.25;2.70;;;;;;;12.29;76.28;98637.31;4981300;28;20121;-78
2023/08/10 01:07:22;;;;;;;3.35;3.05;;;;;;;12.36;75.97;98644.22;4964853;28;20021;-78
2023/08/10 01:10:05;;;;;;;3.78;3.10;;;;;;;12.34;76.61;98646.34;4981451;28;20420;-79
2023/08/10 01:12:48;;;;;;;6.60;4.00;;;;;;;12.18;76.37;98625.50;4981148;28;20112;-77
2023/08/10 01:15:18;;;;;;;5.40;3.63;;;;;;;12.24;76.28;98643.47;4982570;28;20030;-78
2023/08/10 01:17:51;;;;;;;3.55;3.13;;;;;;;12.16;76.60;98627.66;4981799;28;20193;-78
2023/08/10 01:20:21;;;;;;;7.03;3.72;;;;;;;12.15;76.31;98641.41;4981909;28;20038;-78
2023/08/10 01:23:00;;;;;;;8.30;4.13;;;;;;;11.96;76.84;98638.09;4981780;28;20042;-79
2023/08/10 01:25:26;;;;;;;6.07;3.80;;;;;;;11.89;76.89;98626.63;4981622;28;20038;-78
2023/08/10 01:27:52;;;;;;;5.32;3.45;;;;;;;11.88;77.34;98624.97;4981811;28;20507;-78
2023/08/10 01:30:18;;;;;;;3.92;3.10;;;;;;;11.98;76.91;98641.38;4981857;28;20133;-80
2023/08/10 01:32:43;;;;;;;7.38;2.88;;;;;;;11.96;77.19;98632.69;4981329;28;20014;-80
2023/08/10 01:35:10;;;;;;;4.47;2.72;;;;;;;11.92;77.08;98626.16;4981470;28;20042;-78
2023/08/10 01:37:36;;;;;;;5.45;3.10;;;;;;;11.88;76.54;98619.56;4981532;28;20145;-79
2023/08/10 01:40:07;;;;;;;4.50;2.90;;;;;;;11.98;76.93;98641.38;4981155;28;20519;-78
2023/08/10 01:42:32;;;;;;;3.55;2.90;;;;;;;11.84;76.88;98629.22;4969188;28;20181;-78
2023/08/10 01:44:57;;;;;;;4.60;3.50;;;;;;;11.53;76.96;98597.28;4981104;28;20061;-78
2023/08/10 01:47:27;;;;;;;6.97;3.60;;;;;;;11.83;77.43;98651.91;4964868;28;20037;-78
2023/08/10 01:49:56;;;;;;;3.28;2.97;;;;;;;11.63;77.21;98628.00;4965230;28;20571;-79
2023/08/10 01:52:29;;;;;;;3.90;2.70;;;;;;;11.74;77.34;98637.94;4965049;28;20032;-78
2023/08/10 01:54:54;;;;;;;5.05;2.97;;;;;;;11.60;77.05;98616.84;4964861;28;20029;-78
2023/08/10 01:57:20;;;;;;;5.93;3.00;;;;;;;11.61;77.73;98623.91;4980909;28;20048;-78
2023/08/10 01:59:47;;;;;;;4.15;3.17;;;;;;;11.66;77.63;98626.69;4981234;28;20025;-78
2023/08/10 02:02:12;;;;;;;4.70;3.00;;;;;;;11.84;77.87;98667.00;4980705;28;20125;-78
2023/08/10 02:04:38;;;;;;;5.90;3.33;;;;;;;11.76;78.41;98648.53;4979201;28;20480;-78
2023/08/10 02:07:03;;;;;;;6.22;3.10;;;;;;;11.74;78.45;98658.72;4978719;28;20373;-78
2023/08/10 02:09:29;;;;;;;5.55;3.22;;;;;;;11.59;78.35;98642.22;4978576;28;20041;-78
2023/08/10 02:11:54;;;;;;;4.00;2.90;;;;;;;11.82;78.60;98669.13;4994775;28;20034;-78
2023/08/10 02:14:20;;;;;;;7.40;3.15;;;;;;;11.69;78.51;98647.84;4978352;28;20480;-77
2023/08/10 02:16:45;;;;;;;7.20;3.22;;;;;;;11.75;78.68;98646.88;4978523;28;20100;-78
2023/08/10 02:19:11;;;;;;;4.55;3.42;;;;;;;11.68;78.63;98640.78;4978163;28;20038;-77
2023/08/10 02:21:36;;;;;;;4.85;2.85;;;;;;;11.46;78.50;98594.75;4978348;28;20444;-77
2023/08/10 02:24:01;;;;;;;5.13;2.95;;;;;;;11.69;78.50;98632.44;4978130;28;20046;-77
2023/08/10 02:26:27;;;;;;;5.20;2.97;;;;;;;11.87;78.26;98650.34;4978438;28;20049;-78
2023/08/10 02:28:52;;;;;;;7.07;3.00;;;;;;;11.81;78.57;98634.31;4978172;28;20472;-78
2023/08/10 02:31:18;;;;;;;5.55;2.83;;;;;;;11.78;78.37;98625.59;4962163;28;20053;-77
2023/08/10 02:33:43;;;;;;;3.97;3.30;;;;;;;11.84;78.71;98629.22;4961867;28;20519;-78
2023/08/10 02:36:09;;;;;;;5.07;3.60;;;;;;;11.54;79.20;98628.63;4978246;28;20030;-77
2023/08/10 02:38:34;;;;;;;4.40;3.60;;;;;;;11.46;78.80;98626.31;4978354;28;20057;-78
2023/08/10 02:40:59;;;;;;;5.32;4.10;;;;;;;11.26;79.24;98610.53;4978274;28;20068;-78
2023/08/10 02:43:25;;;;;;;7.95;4.30;;;;;;;11.33;78.88;98622.00;4977820;28;20046;-78
2023/08/10 02:45:50;;;;;;;4.90;4.32;;;;;;;11.25;79.10;98624.25;4978217;28;20030;-77
2023/08/10 02:48:16;;;;;;;5.38;3.83;;;;;;;11.20;79.29;98629.53;4978221;28;20112;-78
2023/08/10 02:50:42;;;;;;;5.25;4.55;;;;;;;11.07;80.03;98619.81;4974750;28;20465;-78
2023/08/10 02:53:07;;;;;;;4.88;3.70;;;;;;;11.13;80.04;98620.75;4977796;28;20113;-78
2023/08/10 02:55:32;;;;;;;5.47;3.28;;;;;;;11.30;79.95;98637.81;4994229;28;20472;-78
2023/08/10 02:57:58;;;;;;;4.53;3.08;;;;;;;11.16;79.91;98604.09;4977945;28;20113;-78
2023/08/10 03:00:23;;;;;;;5.57;3.50;;;;;;;11.28;79.89;98618.38;4978180;28;20381;-78
2023/08/10 03:02:50;;;;;;;6.55;4.15;;;;;;;11.43;79.60;98648.34;4977538;28;20034;-78
2023/08/10 03:05:20;;;;;;;4.50;3.10;;;;;;;11.34;79.48;98633.59;4961822;28;20033;-77
2023/08/10 03:07:45;;;;;;;4.45;3.25;;;;;;;11.41;79.64;98631.59;4978182;28;20125;-78
2023/08/10 03:10:11;;;;;;;6.38;3.70;;;;;;;11.50;79.88;98666.03;4978029;28;20054;-78
2023/08/10 03:12:37;;;;;;;5.53;3.83;;;;;;;11.36;80.09;98644.97;4986474;28;20026;-78
2023/08/10 03:15:08;;;;;;;6.40;4.20;;;;;;;11.43;79.24;98659.97;4977921;28;20022;-77
2023/08/10 03:17:33;;;;;;;4.68;3.90;;;;;;;11.30;79.44;98648.59;4961991;28;20030;-78
2023/08/10 03:19:59;;;;;;;3.90;3.47;;;;;;;11.29;79.75;98642.41;4977728;28;20126;-78
2023/08/10 03:22:27;;;;;;;3.58;3.00;;;;;;;11.28;79.13;98634.53;4977387;28;20512;-78
2023/08/10 03:24:53;;;;;;;5.30;3.72;;;;;;;11.42;79.01;98657.50;4977662;28;20534;-78
2023/08/10 03:27:19;;;;;;;3.75;3.38;;;;;;;11.30;79.86;98640.50;4977441;28;20072;-78
2023/08/10 03:29:45;;;;;;;5.00;3.35;;;;;;;11.30;78.98;98646.72;4977794;28;20400;-77
2023/08/10 03:32:11;;;;;;;4.00;3.20;;;;;;;11.32;79.12;98651.91;4980617;28;20038;-77
2023/08/10 03:34:37;;;;;;;5.72;4.10;;;;;;;11.27;79.16;98646.41;4981169;28;20029;-78
2023/08/10 03:37:03;;;;;;;5.43;3.58;;;;;;;10.98;79.76;98623.94;4981343;28;20496;-78
2023/08/10 03:39:28;;;;;;;7.93;5.47;;;;;;;11.00;79.83;98644.22;4981203;28;20032;-78
2023/08/10 03:41:54;;;;;;;6.88;4.45;;;;;;;11.09;79.73;98653.56;4981017;28;20034;-78
2023/08/10 03:44:19;;;;;;;4.50;4.10;;;;;;;11.10;79.31;98665.19;4981040;28;20025;-77
2023/08/10 03:46:45;;;;;;;7.65;4.45;;;;;;;11.23;79.87;98674.88;4997422;28;20084;-77
2023/08/10 03:49:11;;;;;;;12.77;5.50;;;;;;;10.71;80.42;98623.59;4981042;28;20029;-77
2023/08/10 03:51:37;;;;;;;5.75;4.57;;;;;;;10.77;80.31;98656.88;4980906;28;20049;-77
2023/08/10 03:54:02;;;;;;;5.22;4.40;;;;;;;10.89;79.74;98661.22;4981290;28;20025;-78
2023/08/10 03:56:28;;;;;;;8.23;5.15;;;;;;;10.93;79.66;98678.53;4997918;28;20038;-78
2023/08/10 03:58:53;;;;;;;7.32;4.15;;;;;;;10.95;79.93;98679.13;4981619;28;20112;-78
2023/08/10 04:01:20;;;;;;;4.90;3.65;;;;;;;10.89;79.40;98674.69;4981752;28;20125;-78
2023/08/10 04:03:45;;;;;;;7.60;3.83;;;;;;;10.89;79.63;98668.47;4980887;28;20124;-77
2023/08/10 04:06:11;;;;;;;4.20;3.80;;;;;;;10.59;79.20;98641.66;5015243;28;20041;-77
2023/08/10 04:08:36;;;;;;;6.03;4.20;;;;;;;11.04;79.84;98693.06;4997627;28;20030;-78
2023/08/10 04:11:02;;;;;;;6.70;4.30;;;;;;;10.89;79.63;98679.25;4981242;28;20488;-78
2023/08/10 04:13:28;;;;;;;5.50;4.10;;;;;;;10.94;80.18;98677.50;4981031;28;20517;-78
2023/08/10 04:15:54;;;;;;;9.68;3.72;;;;;;;10.82;79.57;98654.28;4997444;28;20037;-78
2023/08/10 04:18:19;;;;;;;6.97;3.42;;;;;;;11.06;79.46;98707.94;4980992;28;20124;-78
2023/08/10 04:20:45;;;;;;;5.38;3.55;;;;;;;10.86;80.02;98671.63;4980988;28;20045;-78
2023/08/10 04:23:10;;;;;;;6.15;3.53;;;;;;;10.97;79.48;98693.19;4980689;28;20034;-78
2023/08/10 04:25:36;;;;;;;4.95;3.90;;;;;;;11.06;79.73;98702.53;4997092;28;20061;-78
2023/08/10 04:28:02;;;;;;;4.00;3.58;;;;;;;10.99;79.39;98698.34;4964687;28;20435;-78
2023/08/10 04:30:29;;;;;;;3.85;3.50;;;;;;;10.96;79.68;98686.16;4980835;28;20042;-78
2023/08/10 04:32:55;;;;;;;4.93;3.50;;;;;;;11.18;79.79;98717.91;4981008;28;20018;-78
2023/08/10 04:35:21;;;;;;;7.18;3.53;;;;;;;11.27;80.01;98728.09;4980833;28;20109;-78
2023/08/10 04:37:48;;;;;;;6.15;3.92;;;;;;;11.04;80.25;98701.97;4980793;28;20747;-78
2023/08/10 04:40:14;;;;;;;6.85;4.13;;;;;;;11.05;79.57;98695.53;4980808;28;20408;-78
2023/08/10 04:42:40;;;;;;;6.13;4.72;;;;;;;11.31;80.44;98726.56;4979246;28;20116;-78
2023/08/10 04:45:07;;;;;;;5.63;4.88;;;;;;;11.45;80.59;98735.22;4980659;28;20038;-78
2023/08/10 04:47:32;;;;;;;8.90;5.40;;;;;;;11.49;80.79;98734.53;4980432;28;20022;-78
2023/08/10 04:49:57;;;;;;;9.98;5.40;;;;;;;11.34;80.91;98709.09;4996802;28;20026;-78
2023/08/10 04:52:23;;;;;;;9.90;6.50;;;;;;;11.49;81.36;98726.44;4980344;28;20385;-78
2023/08/10 04:54:48;;;;;;;10.15;6.68;;;;;;;11.44;81.10;98715.53;4980350;28;20072;-79
2023/08/10 04:57:13;;;;;;;10.23;6.28;;;;;;;11.51;81.36;98721.63;4980538;28;20502;-78
2023/08/10 04:59:39;;;;;;;11.40;6.38;;;;;;;11.57;81.86;98714.47;4996781;28;20120;-78
2023/08/10 05:02:04;;;;;;;12.63;7.20;;;;;;;11.64;81.90;98709.75;4980289;28;20022;-78
2023/08/10 05:04:30;;;;;;;10.50;6.80;;;;;;;11.62;82.64;98728.06;4980105;28;20145;-78
2023/08/10 05:06:56;;;;;;;10.10;5.95;;;;;;;11.34;82.10;98703.72;4963922;28;20026;-78
2023/08/10 05:09:21;;;;;;;8.63;5.05;;;;;;;11.44;81.99;98730.88;4980466;28;20116;-77
2023/08/10 05:11:47;;;;;;;7.57;5.63;;;;;;;11.24;81.67;98684.63;4979334;28;20030;-77
2023/08/10 05:14:12;;;;;;;7.80;4.93;;;;;;;11.02;82.89;98671.75;4979173;28;20034;-77
2023/08/10 05:16:37;;;;;;;7.07;5.07;;;;;;;11.42;82.18;98746.50;4979487;28;20111;-77
2023/08/10 05:19:03;;;;;;;5.80;5.20;;;;;;;11.33;82.21;98719.06;4995569;28;20042;-77
2023/08/10 05:21:28;;;;;;;7.57;4.93;;;;;;;11.51;81.90;98737.78;4995293;28;20037;-76
2023/08/10 05:23:54;;;;;;;6.80;4.70;;;;;;;11.68;81.82;98743.31;4962902;28;20038;-76
2023/08/10 05:26:19;;;;;;;7.18;4.25;;;;;;;11.62;81.82;98698.38;4995485;28;20057;-77
2023/08/10 05:28:45;;;;;;;6.55;4.55;;;;;;;11.89;81.87;98728.34;4979023;28;20412;-77
2023/08/10 05:31:11;;;;;;;6.65;4.63;;;;;;;12.13;81.47;98740.72;4982266;28;20038;-76
2023/08/10 05:33:36;;;;;;;8.65;4.38;;;;;;;12.30;81.63;98742.41;4978953;28;20072;-76
2023/08/10 05:36:02;;;;;;;8.30;4.68;;;;;;;11.98;81.73;98695.34;4978881;28;20053;-77
2023/08/10 05:38:27;;;;;;;6.10;4.25;;;;;;;12.36;81.60;98736.03;4995185;28;20044;-77
2023/08/10 05:40:54;;;;;;;9.00;5.00;;;;;;;12.47;81.26;98737.84;4995140;28;20076;-76
2023/08/10 05:43:19;;;;;;;4.57;4.10;;;;;;;12.37;81.17;98683.66;4994879;28;20061;-77
2023/08/10 05:45:45;;;;;;;8.25;4.90;;;;;;;12.53;81.19;98714.47;4978849;28;20030;-77
2023/08/10 05:48:11;;;;;;;7.05;4.47;;;;;;;12.77;81.51;98747.53;4978754;28;20041;-77
2023/08/10 05:50:37;;;;;;;5.35;4.85;;;;;;;12.82;82.03;98761.16;4994959;28;20026;-76
2023/08/10 05:53:03;;;;;;;5.50;4.55;;;;;;;12.97;81.62;98758.72;4984204;28;20503;-77
2023/08/10 05:55:28;;;;;;;7.07;4.95;;;;;;;13.09;81.40;98771.09;4978639;28;20026;-77
2023/08/10 05:57:54;;;;;;;5.05;4.50;;;;;;;13.03;81.41;98741.50;4978627;28;20040;-77
2023/08/10 06:00:19;;;;;;;6.85;4.70;;;;;;;12.99;81.61;98741.19;4978633;28;20099;-76
2023/08/10 06:02:45;;;;;;;7.75;4.72;;;;;;;13.03;81.75;98736.06;4978438;28;20132;-77
2023/08/10 06:05:12;;;;;;;5.93;4.68;;;;;;;13.18;81.48;98744.47;4994464;28;20034;-76
2023/08/10 06:07:37;;;;;;;5.72;5.10;;;;;;;13.30;82.72;98747.06;4978377;28;20030;-76
2023/08/10 06:10:04;;;;;;;5.28;4.78;;;;;;;13.42;81.81;98748.59;4978372;28;20030;-77
2023/08/10 06:12:31;;;;;;;5.47;4.93;;;;;;;13.47;81.78;98731.63;4978390;28;20440;-77
2023/08/10 06:14:57;;;;;;;8.18;5.53;;;;;;;13.64;81.57;98735.09;4978430;28;20021;-77
2023/08/10 06:17:22;;;;;;;8.30;5.47;;;;;;;13.57;81.15;98710.94;4959363;28;20092;-77
2023/08/10 06:19:52;;;;;;;6.65;5.13;;;;;;;13.74;82.31;98757.72;4978271;28;20056;-77
2023/08/10 06:22:17;;;;;;;10.32;5.68;;;;;;;14.04;81.36;98764.59;4978009;28;20503;-77
2023/08/10 06:24:43;;;;;;;7.03;6.30;;;;;;;13.99;81.46;98751.81;4977813;28;20022;-77
2023/08/10 06:27:09;;;;;;;6.00;5.40;;;;;;;13.97;80.79;98736.88;5011930;28;20029;-77
2023/08/10 06:29:35;;;;;;;7.13;5.03;;;;;;;14.16;80.47;98757.16;4978145;28;20091;-77
2023/08/10 06:32:04;;;;;;;7.00;5.60;;;;;;;14.33;80.95;98768.72;4994346;28;20472;-78
2023/08/10 06:34:30;;;;;;;6.40;5.00;;;;;;;14.39;80.73;98773.16;4977917;28;20022;-78
2023/08/10 06:36:55;;;;;;;7.22;5.35;;;;;;;14.51;80.67;98765.69;4978062;28;20052;-77
2023/08/10 06:39:21;;;;;;;5.78;5.25;;;;;;;14.77;80.30;98781.13;4994219;28;20029;-78
2023/08/10 06:41:47;;;;;;;8.18;5.78;;;;;;;14.85;79.73;98766.28;4978009;28;20480;-77
2023/08/10 06:44:12;;;;;;;6.35;5.05;;;;;;;15.03;79.92;98774.84;4977788;28;20028;-77
2023/08/10 06:46:37;;;;;;;6.65;5.32;;;;;;;15.17;79.41;98780.66;4977942;28;20040;-77
2023/08/10 06:49:03;;;;;;;5.80;5.00;;;;;;;15.11;78.47;98760.81;4977968;28;20125;-77
2023/08/10 06:51:28;;;;;;;6.13;4.85;;;;;;;15.31;78.77;98786.47;4961882;28;20030;-77
2023/08/10 06:53:54;;;;;;;5.47;4.97;;;;;;;15.44;78.39;98770.59;4977871;28;20539;-78
2023/08/10 06:56:19;;;;;;;5.30;4.38;;;;;;;15.63;77.71;98784.56;4978277;28;20048;-77
2023/08/10 06:58:44;;;;;;;5.75;3.90;;;;;;;15.71;77.43;98789.47;4994316;28;20421;-77
2023/08/10 07:01:10;;;;;;;7.57;4.30;;;;;;;15.68;77.68;98793.53;4994473;28;20064;-78
2023/08/10 07:03:35;;;;;;;5.20;3.65;;;;;;;15.55;77.16;98755.97;4993751;28;20083;-78
2023/08/10 07:06:01;;;;;;;6.25;4.28;;;;;;;15.89;77.00;98783.63;4979962;28;20756;-78
2023/08/10 07:08:26;;;;;;;5.28;4.00;;;;;;;15.87;76.65;98780.31;4985504;28;20491;-78
2023/08/10 07:10:52;;;;;;;5.45;3.70;;;;;;;16.06;76.08;98796.97;4981793;28;20132;-77
2023/08/10 07:13:17;;;;;;;4.47;3.35;;;;;;;15.77;76.18;98753.13;4982030;28;20396;-77
2023/08/10 07:15:44;;;;;;;4.13;3.40;;;;;;;16.08;75.96;98809.22;4998248;28;20373;-78
2023/08/10 07:18:10;;;;;;;4.13;3.38;;;;;;;16.22;75.51;98802.22;4982080;28;20033;-77
2023/08/10 07:20:35;;;;;;;3.97;3.33;;;;;;;16.04;75.64;98775.53;4981997;28;20571;-77
2023/08/10 07:23:01;;;;;;;4.85;3.72;;;;;;;16.16;75.26;98762.53;4981687;28;20084;-77
2023/08/10 07:25:28;;;;;;;6.90;3.47;;;;;;;16.35;73.79;98785.44;4997967;28;20400;-77
2023/08/10 07:27:53;;;;;;;3.92;3.45;;;;;;;16.56;73.75;98799.94;4981767;28;20484;-77
2023/08/10 07:30:19;;;;;;;4.85;3.40;;;;;;;16.72;73.46;98812.47;4981653;28;20045;-79
2023/08/10 07:32:44;;;;;;;4.65;3.50;;;;;;;16.59;73.02;98767.56;4981363;28;20026;-77
2023/08/10 07:35:10;;;;;;;4.88;3.53;;;;;;;16.96;72.19;98810.91;4981809;28;20044;-78
2023/08/10 07:37:36;;;;;;;3.50;3.15;;;;;;;17.06;71.90;98804.66;4981695;28;20026;-77
2023/08/10 07:40:06;;;;;;;8.25;3.45;;;;;;;17.10;70.36;98801.13;4998047;28;20141;-77
2023/08/10 07:42:31;;;;;;;5.63;3.08;;;;;;;17.29;71.22;98809.56;4981508;28;20045;-78
2023/08/10 07:44:57;;;;;;;3.90;3.00;;;;;;;17.14;71.11;98790.47;4997558;28;20037;-78
2023/08/10 07:47:22;;;;;;;5.18;3.25;;;;;;;17.10;70.68;98817.44;4981426;28;20084;-77
2023/08/10 07:49:47;;;;;;;4.05;3.30;;;;;;;16.85;70.71;98786.66;4997841;28;20034;-77
2023/08/10 07:52:13;;;;;;;4.88;3.15;;;;;;;16.89;70.49;98798.63;4981284;28;20045;-77
2023/08/10 07:54:38;;;;;;;5.55;3.45;;;;;;;16.81;70.53;98780.09;4997532;28;20543;-77
2023/08/10 07:57:04;;;;;;;3.63;3.15;;;;;;;17.15;70.75;98813.91;4981354;28;20030;-77
2023/08/10 07:59:30;;;;;;;3.70;2.97;;;;;;;17.19;70.43;98801.38;4965170;28;20476;-78
2023/08/10 08:01:55;;;;;;;3.70;2.70;;;;;;;17.27;70.18;98800.81;4980978;28;20123;-78
2023/08/10 08:04:21;;;;;;;4.43;2.95;;;;;;;16.84;69.68;98719.72;4980725;28;20065;-77
2023/08/10 08:06:46;;;;;;;5.07;3.20;;;;;;;16.89;69.58;98711.56;4981098;28;20061;-78
2023/08/10 08:09:13;;;;;;;4.20;2.85;;;;;;;17.61;69.28;98796.47;4981009;28;20499;-78
2023/08/10 08:11:38;;;;;;;3.10;2.67;;;;;;;17.82;69.80;98803.53;4997050;28;20045;-78
2023/08/10 08:14:04;;;;;;;4.50;3.35;;;;;;;17.79;69.32;98804.06;5014397;28;20018;-77
2023/08/10 08:16:30;;;;;;;4.15;2.88;;;;;;;17.88;68.66;98786.06;4964482;28;20061;-78
2023/08/10 08:18:55;;;;;;;3.85;2.60;;;;;;;17.89;69.88;98767.78;4980931;28;20037;-77
2023/08/10 08:21:23;;;;;;;4.88;2.67;;;;;;;18.33;68.93;98797.88;4981532;28;20508;-78
2023/08/10 08:23:49;;;;;;;3.28;2.97;;;;;;;18.21;68.29;98772.84;4979868;28;20027;-77
2023/08/10 08:26:15;;;;;;;5.95;3.08;;;;;;;18.40;67.87;98773.84;4977701;28;20045;-78
2023/08/10 08:28:41;;;;;;;2.95;2.60;;;;;;;18.41;67.60;98745.50;4979356;28;20411;-77
2023/08/10 08:31:07;;;;;;;3.95;2.88;;;;;;;18.68;66.61;98778.63;4979856;28;20088;-78
2023/08/10 08:33:33;;;;;;;2.92;2.45;;;;;;;18.79;67.08;98773.91;4960143;28;20026;-77
2023/08/10 08:35:59;;;;;;;6.22;2.80;;;;;;;18.88;65.17;98773.03;4979930;28;20033;-77
2023/08/10 08:38:25;;;;;;;4.15;2.40;;;;;;;19.00;64.44;98797.25;4980249;28;20384;-78
2023/08/10 08:40:50;;;;;;;6.47;2.33;;;;;;;19.08;64.68;98781.09;4980777;28;20042;-78
2023/08/10 08:43:17;;;;;;;3.22;2.25;;;;;;;19.21;63.13;98769.50;4980360;28;20048;-78
2023/08/10 08:45:42;;;;;;;3.65;2.08;;;;;;;19.31;61.63;98782.25;4980342;28;20416;-78
2023/08/10 08:48:09;;;;;;;2.20;2.00;;;;;;;19.33;58.30;98788.25;4980499;28;20022;-78
2023/08/10 08:50:36;;;;;;;2.10;1.83;;;;;;;19.25;58.79;98795.13;4980616;28;20080;-78
2023/08/10 08:53:06;;;;;;;2.90;2.15;;;;;;;19.46;58.10;98800.47;4980218;28;20468;-77
2023/08/10 08:55:31;;;;;;;1.90;1.73;;;;;;;19.30;57.04;98781.44;4996853;28;20477;-78
2023/08/10 08:57:57;;;;;;;2.35;1.80;;;;;;;19.22;56.47;98762.13;4996798;28;20037;-77
2023/08/10 09:00:22;;;;;;;3.13;2.00;;;;;;;19.28;57.98;98760.97;4996603;28;20026;-77
2023/08/10 09:02:49;;;;;;;2.95;2.00;;;;;;;19.62;57.13;98777.34;4996284;28;20081;-78
2023/08/10 09:05:14;;;;;;;5.60;1.88;;;;;;;19.36;54.83;98756.84;4980161;28;20092;-77
2023/08/10 09:07:40;;;;;;;3.67;2.03;;;;;;;19.69;55.39;98789.59;4980296;28;20037;-77
2023/08/10 09:10:05;;;;;;;3.13;1.92;;;;;;;19.75;55.36;98773.94;4996664;28;20400;-77
2023/08/10 09:12:33;;;;;;;2.85;1.77;;;;;;;19.90;51.97;98790.19;4979813;28;20038;-78
2023/08/10 09:15:10;;;;;;;3.15;1.73;;;;;;;19.36;51.71;98745.91;4996107;28;20592;-77
2023/08/10 09:17:38;;;;;;;3.15;2.03;;;;;;;19.77;54.52;98780.72;4979907;28;20435;-78
2023/08/10 09:20:08;;;;;;;3.63;2.15;;;;;;;19.75;53.63;98765.72;5013817;28;20053;-77
2023/08/10 09:22:36;;;;;;;2.40;1.95;;;;;;;19.94;53.43;98780.28;4980388;28;20397;-78
2023/08/10 09:25:03;;;;;;;4.18;2.00;;;;;;;20.00;52.91;98768.16;4963851;28;20044;-78
2023/08/10 09:27:29;;;;;;;5.15;2.00;;;;;;;20.23;54.60;98761.94;4979850;28;20450;-78
2023/08/10 09:29:56;;;;;;;2.00;1.70;;;;;;;20.47;53.69;98761.84;4979167;28;20101;-77
2023/08/10 09:32:22;;;;;;;2.63;1.40;;;;;;;20.47;53.24;98729.84;4979790;28;20041;-77
2023/08/10 09:34:48;;;;;;;2.17;1.90;;;;;;;20.75;52.75;98757.38;4979609;28;20022;-78
2023/08/10 09:37:13;;;;;;;2.60;1.80;;;;;;;20.55;50.82;98756.56;5013480;28;20057;-77
2023/08/10 09:39:39;;;;;;;3.42;1.92;;;;;;;20.50;49.46;98761.28;4979722;28;20033;-77
2023/08/10 09:42:05;;;;;;;1.80;1.65;;;;;;;20.28;49.00;98753.63;4979585;28;20403;-77
2023/08/10 09:44:48;;;;;;;4.78;1.90;;;;;;;20.50;48.11;98745.69;4979508;28;20022;-77
2023/08/10 09:47:15;;;;;;;1.88;1.67;;;;;;;20.69;48.26;98764.84;4979365;28;20042;-76
2023/08/10 09:49:55;;;;;;;3.80;2.05;;;;;;;20.71;50.40;98750.84;4995748;28;20030;-77
2023/08/10 09:52:21;;;;;;;2.65;1.85;;;;;;;21.01;49.50;98772.28;4995730;28;20045;-78
2023/08/10 09:54:48;;;;;;;3.05;1.90;;;;;;;20.89;50.21;98741.81;4963176;28;20142;-78
2023/08/10 09:57:13;;;;;;;3.17;1.90;;;;;;;21.06;50.18;98753.06;4979134;28;20041;-78
2023/08/10 09:59:39;;;;;;;3.42;1.90;;;;;;;20.96;50.76;98734.03;4979462;28;20033;-78
2023/08/10 10:02:06;;;;;;;3.72;2.20;;;;;;;20.76;48.81;98696.03;4979723;28;20121;-77
2023/08/10 10:04:33;;;;;;;3.97;1.90;;;;;;;21.24;49.25;98754.97;4978861;28;20080;-78
2023/08/10 10:06:59;;;;;;;3.03;2.00;;;;;;;21.12;48.33;98743.69;4979570;28;20129;-77
2023/08/10 10:09:26;;;;;;;3.78;2.00;;;;;;;21.16;50.75;98717.31;4979301;28;20107;-78
2023/08/10 10:11:54;;;;;;;2.15;1.73;;;;;;;21.64;49.42;98743.28;4979268;28;20478;-78
2023/08/10 10:14:20;;;;;;;4.07;2.38;;;;;;;21.73;49.31;98735.16;4995202;28;20014;-78
2023/08/10 10:16:46;;;;;;;2.85;1.85;;;;;;;21.69;50.04;98740.44;4995465;28;20543;-77
2023/08/10 10:19:12;;;;;;;3.17;2.10;;;;;;;21.75;47.84;98722.75;4979321;28;20121;-78
2023/08/10 10:21:37;;;;;;;2.90;2.20;;;;;;;21.47;46.86;98699.19;4995192;28;20033;-78
2023/08/10 10:24:03;;;;;;;5.15;2.10;;;;;;;21.83;45.33;98743.19;4978588;28;20057;-78
2023/08/10 10:26:29;;;;;;;2.88;1.98;;;;;;;21.90;48.60;98722.50;4976016;28;20049;-78
2023/08/10 10:29:24;;;;;;;1.98;1.73;;;;;;;22.27;47.69;98737.09;4978609;28;20526;-76
2023/08/10 10:31:50;;;;;;;2.08;1.70;;;;;;;22.38;46.52;98742.06;4953589;28;20041;-77
2023/08/10 10:34:20;;;;;;;7.78;2.20;;;;;;;22.40;46.58;98717.06;4994341;28;20018;-77
2023/08/10 10:36:46;;;;;;;2.70;2.00;;;;;;;21.98;45.25;98688.06;4994347;28;20037;-77
2023/08/10 10:39:19;;;;;;;2.47;1.83;;;;;;;22.11;45.45;98727.56;4978054;28;20053;-76
2023/08/10 10:41:45;;;;;;;2.22;1.80;;;;;;;22.31;45.58;98735.38;4977988;28;20486;-76
2023/08/10 10:44:11;;;;;;;2.35;2.00;;;;;;;22.36;45.35;98732.50;4980736;28;20038;-77
2023/08/10 10:46:37;;;;;;;2.33;1.90;;;;;;;22.36;44.66;98703.13;4994014;28;20030;-76
2023/08/10 10:49:10;;;;;;;3.63;2.30;;;;;;;22.66;44.00;98726.41;4977993;28;20042;-77
2023/08/10 10:51:49;;;;;;;2.63;2.25;;;;;;;22.20;44.32;98690.88;4977980;28;20477;-79
2023/08/10 10:54:14;;;;;;;3.50;2.40;;;;;;;22.49;44.44;98712.47;4977675;28;20026;-77
2023/08/10 10:56:42;;;;;;;3.85;2.28;;;;;;;22.36;44.91;98688.59;4978272;28;20104;-77
2023/08/10 10:59:08;;;;;;;3.55;2.30;;;;;;;22.40;44.59;98714.31;4978771;28;20125;-77
2023/08/10 11:01:33;;;;;;;2.70;2.28;;;;;;;21.92;45.04;98717.53;4977898;28;20026;-77
2023/08/10 11:03:59;;;;;;;2.47;2.00;;;;;;;22.20;45.54;98717.50;4977220;28;20038;-77
2023/08/10 11:06:27;;;;;;;4.47;2.25;;;;;;;22.27;45.67;98717.88;4977710;28;20543;-77
2023/08/10 11:08:55;;;;;;;3.13;2.40;;;;;;;22.68;45.80;98729.63;4977685;28;20049;-77
2023/08/10 11:11:23;;;;;;;2.70;2.38;;;;;;;22.57;45.36;98700.72;4994362;28;20263;-79
2023/08/10 11:13:49;;;;;;;4.75;2.55;;;;;;;22.61;43.87;98701.78;4978411;28;20038;-77
2023/08/10 11:16:16;;;;;;;2.55;2.35;;;;;;;23.00;44.11;98717.59;4978453;28;20018;-77
2023/08/10 11:18:42;;;;;;;2.40;2.20;;;;;;;23.16;44.99;98697.66;4993927;28;20038;-78
2023/08/10 11:21:11;;;;;;;4.15;2.35;;;;;;;23.49;44.36;98678.16;4977861;28;20093;-77
2023/08/10 11:23:38;;;;;;;3.33;2.17;;;;;;;23.99;45.05;98704.25;4977738;28;20034;-78
2023/08/10 11:26:04;;;;;;;2.42;2.20;;;;;;;23.79;42.38;98667.09;4994776;28;20045;-78
2023/08/10 11:28:29;;;;;;;4.05;2.30;;;;;;;24.02;41.52;98698.09;4978675;28;20045;-77
2023/08/10 11:31:03;;;;;;;3.63;2.80;;;;;;;23.53;43.72;98696.44;4978402;28;20548;-78